createdAt,value
2023-02-09T00:00:27.652Z,14.83
2023-02-09T00:02:54.148Z,11.87
2023-02-09T00:05:20.650Z,12.30
2023-02-09T00:07:47.129Z,12.63
2023-02-09T00:10:13.679Z,10.57
2023-02-09T00:12:40.176Z,12.40
2023-02-09T00:15:08.616Z,12.43
2023-02-09T00:17:35.843Z,11.53
2023-02-09T00:20:02.847Z,12.83
2023-02-09T00:22:29.383Z,12.10
2023-02-09T00:24:57.348Z,14.20
2023-02-09T00:27:23.943Z,16.03
2023-02-09T00:29:50.475Z,15.63
2023-02-09T00:32:18.347Z,16.50
2023-02-09T00:34:45.098Z,15.03
2023-02-09T00:37:11.598Z,14.60
2023-02-09T00:39:38.169Z,13.20
2023-02-09T00:42:04.788Z,12.87
2023-02-09T00:44:31.342Z,13.40
2023-02-09T00:46:57.930Z,11.50
2023-02-09T00:49:25.841Z,12.47
2023-02-09T00:51:52.380Z,12.47
2023-02-09T00:54:19.064Z,13.90
2023-02-09T00:56:45.831Z,14.17
2023-02-09T00:59:12.573Z,11.80
2023-02-09T01:01:39.704Z,11.53
2023-02-09T01:04:06.187Z,13.47
2023-02-09T01:06:34.322Z,12.70
2023-02-09T01:09:01.415Z,12.43
2023-02-09T01:11:28.241Z,13.37
2023-02-09T01:13:56.315Z,12.87
2023-02-09T01:16:22.950Z,12.80
2023-02-09T01:18:49.496Z,12.40
2023-02-09T01:21:18.731Z,12.80
2023-02-09T01:23:47.362Z,12.93
2023-02-09T01:26:15.637Z,12.80
2023-02-09T01:28:42.465Z,11.70
2023-02-09T01:31:19.752Z,12.33
2023-02-09T01:33:46.543Z,13.07
2023-02-09T01:36:13.086Z,13.60
2023-02-09T01:38:39.652Z,16.63
2023-02-09T01:41:07.536Z,15.43
2023-02-09T01:43:48.648Z,16.37
2023-02-09T01:46:15.180Z,13.53
2023-02-09T01:48:41.957Z,13.00
2023-02-09T01:51:08.589Z,11.83
2023-02-09T01:53:35.188Z,12.50
2023-02-09T01:56:06.464Z,11.10
2023-02-09T01:58:34.880Z,12.90
2023-02-09T02:01:01.637Z,13.57
2023-02-09T02:03:29.263Z,13.63
2023-02-09T02:05:59.332Z,15.20
2023-02-09T02:08:30.222Z,11.93
2023-02-09T02:10:58.277Z,14.23
2023-02-09T02:13:24.858Z,12.20
2023-02-09T02:15:59.214Z,12.80
2023-02-09T02:18:39.129Z,13.53
2023-02-09T02:21:34.310Z,14.83
2023-02-09T02:24:29.736Z,14.97
2023-02-09T02:26:58.447Z,14.80
2023-02-09T02:29:47.401Z,15.20
2023-02-09T02:32:27.884Z,17.60
2023-02-09T02:35:00.783Z,16.50
2023-02-09T02:37:52.400Z,13.07
2023-02-09T02:40:28.577Z,13.60
2023-02-09T02:43:02.302Z,15.07
2023-02-09T02:45:40.272Z,13.37
2023-02-09T02:48:17.100Z,14.93
2023-02-09T02:50:48.657Z,15.17
2023-02-09T02:53:17.921Z,15.77
2023-02-09T02:55:47.138Z,14.60
2023-02-09T02:58:15.702Z,15.90
2023-02-09T03:00:48.278Z,17.33
2023-02-09T03:03:18.918Z,15.93
2023-02-09T03:05:47.134Z,18.03
2023-02-09T03:08:13.663Z,15.00
2023-02-09T03:10:41.764Z,16.07
2023-02-09T03:13:34.376Z,16.87
2023-02-09T03:16:14.107Z,13.97
2023-02-09T03:18:55.126Z,14.43
2023-02-09T03:21:31.921Z,14.73
2023-02-09T03:24:03.481Z,14.97
2023-02-09T03:26:37.652Z,14.80
2023-02-09T03:29:05.110Z,15.37
2023-02-09T03:31:32.540Z,18.07
2023-02-09T03:34:00.993Z,16.50
2023-02-09T03:36:33.265Z,16.77
2023-02-09T03:38:59.967Z,14.60
2023-02-09T03:41:26.442Z,14.23
2023-02-09T03:43:52.948Z,13.47
2023-02-09T03:46:19.597Z,16.30
2023-02-09T03:48:46.104Z,28.10
2023-02-09T03:51:14.168Z,17.57
2023-02-09T03:53:40.707Z,13.07
2023-02-09T03:56:07.315Z,14.83
2023-02-09T03:58:33.806Z,15.20
2023-02-09T04:01:02.829Z,15.33
2023-02-09T04:03:29.389Z,15.97
2023-02-09T04:05:55.908Z,14.60
2023-02-09T04:08:23.757Z,19.80
2023-02-09T04:10:50.266Z,16.07
2023-02-09T04:13:16.776Z,16.87
2023-02-09T04:15:43.318Z,14.83
2023-02-09T04:18:09.866Z,13.80
2023-02-09T04:20:37.471Z,14.70
2023-02-09T04:23:03.999Z,16.17
2023-02-09T04:25:31.883Z,16.10
2023-02-09T04:27:58.409Z,13.50
2023-02-09T04:30:24.894Z,13.43
2023-02-09T04:32:52.139Z,12.10
2023-02-09T04:35:18.643Z,12.73
2023-02-09T04:37:45.138Z,13.07
2023-02-09T04:40:11.949Z,14.77
2023-02-09T04:42:39.787Z,14.80
2023-02-09T04:45:07.102Z,13.13
2023-02-09T04:47:33.652Z,14.23
2023-02-09T04:50:00.162Z,14.43
2023-02-09T04:52:26.668Z,13.37
2023-02-09T04:54:53.197Z,15.73
2023-02-09T04:57:19.742Z,14.57
2023-02-09T04:59:47.598Z,16.10
2023-02-09T05:02:14.100Z,15.07
2023-02-09T05:04:40.819Z,14.23
2023-02-09T05:07:07.368Z,16.50
2023-02-09T05:09:33.909Z,17.20
2023-02-09T05:12:00.407Z,16.17
2023-02-09T05:14:27.035Z,16.43
2023-02-09T05:16:54.924Z,16.57
2023-02-09T05:19:21.457Z,16.77
2023-02-09T05:21:47.993Z,17.97
2023-02-09T05:24:14.495Z,14.77
2023-02-09T05:26:41.006Z,15.27
2023-02-09T05:29:07.532Z,16.53
2023-02-09T05:31:34.152Z,15.47
2023-02-09T05:34:02.035Z,14.27
2023-02-09T05:36:28.639Z,14.53
2023-02-09T05:38:55.134Z,14.30
2023-02-09T05:41:21.651Z,16.47
2023-02-09T05:43:48.158Z,16.40
2023-02-09T05:46:14.723Z,17.57
2023-02-09T05:48:41.334Z,17.30
2023-02-09T05:51:09.194Z,14.17
2023-02-09T05:53:35.697Z,14.13
2023-02-09T05:56:02.187Z,19.30
2023-02-09T05:58:28.715Z,17.00
2023-02-09T06:00:55.198Z,17.23
2023-02-09T06:03:21.768Z,16.10
2023-02-09T06:05:48.330Z,16.57
2023-02-09T06:08:16.162Z,15.67
2023-02-09T06:10:42.723Z,16.73
2023-02-09T06:13:09.330Z,16.50
2023-02-09T06:15:35.873Z,19.77
2023-02-09T06:18:02.397Z,20.40
2023-02-09T06:20:28.921Z,18.30
2023-02-09T06:22:55.427Z,17.17
2023-02-09T06:25:23.332Z,18.90
2023-02-09T06:27:49.982Z,19.13
2023-02-09T06:30:16.647Z,16.97
2023-02-09T06:32:43.165Z,15.77
2023-02-09T06:35:09.649Z,15.77
2023-02-09T06:37:36.152Z,14.60
2023-02-09T06:40:02.904Z,15.97
2023-02-09T06:42:30.772Z,15.40
2023-02-09T06:44:57.244Z,16.37
2023-02-09T06:47:23.723Z,13.80
2023-02-09T06:49:50.227Z,11.77
2023-02-09T06:52:16.874Z,17.53
2023-02-09T06:54:45.084Z,15.67
2023-02-09T06:57:11.715Z,15.40
2023-02-09T06:59:39.571Z,14.23
2023-02-09T07:02:06.369Z,19.63
2023-02-09T07:04:32.883Z,19.23
2023-02-09T07:06:59.388Z,22.20
2023-02-09T07:09:25.896Z,19.03
2023-02-09T07:11:52.387Z,17.50
2023-02-09T07:14:18.911Z,16.63
2023-02-09T07:16:46.802Z,15.60
2023-02-09T07:19:13.304Z,14.30
2023-02-09T07:21:39.824Z,14.70
2023-02-09T07:24:06.607Z,16.83
2023-02-09T07:26:33.185Z,13.30
2023-02-09T07:29:00.611Z,14.77
2023-02-09T07:31:27.433Z,16.63
2023-02-09T07:33:55.409Z,13.97
2023-02-09T07:36:22.072Z,15.57
2023-02-09T07:38:48.672Z,16.73
2023-02-09T07:41:16.864Z,15.67
2023-02-09T07:43:43.769Z,18.53
2023-02-09T07:46:11.581Z,14.70
2023-02-09T07:48:38.136Z,16.07
2023-02-09T07:51:06.392Z,15.70
2023-02-09T07:53:33.441Z,15.80
2023-02-09T07:55:59.981Z,18.70
2023-02-09T07:58:26.596Z,16.53
2023-02-09T08:00:53.120Z,17.53
2023-02-09T08:03:22.306Z,19.23
2023-02-09T08:05:55.359Z,17.70
2023-02-09T08:08:23.320Z,15.90
2023-02-09T08:10:50.215Z,16.60
2023-02-09T08:13:16.929Z,17.40
2023-02-09T08:15:47.248Z,16.30
2023-02-09T08:18:16.880Z,14.77
2023-02-09T08:20:44.607Z,16.73
2023-02-09T08:23:15.725Z,14.23
2023-02-09T08:25:43.858Z,16.00
2023-02-09T08:28:10.759Z,16.53
2023-02-09T08:30:38.069Z,14.17
2023-02-09T08:33:04.589Z,13.73
2023-02-09T08:35:31.471Z,18.90
2023-02-09T08:38:01.331Z,18.60
2023-02-09T08:40:28.364Z,20.33
2023-02-09T08:42:56.258Z,17.87
2023-02-09T08:45:22.946Z,21.73
2023-02-09T08:47:49.814Z,14.87
2023-02-09T08:50:16.593Z,14.27
2023-02-09T08:52:43.138Z,12.67
2023-02-09T08:55:09.704Z,15.73
2023-02-09T08:57:44.071Z,17.57
2023-02-09T09:00:14.257Z,14.90
2023-02-09T09:02:40.738Z,13.67
2023-02-09T09:05:07.870Z,12.90
2023-02-09T09:07:34.409Z,14.47
2023-02-09T09:10:00.912Z,13.30
2023-02-09T09:12:29.418Z,13.63
2023-02-09T09:14:55.993Z,13.80
2023-02-09T09:17:23.871Z,15.37
2023-02-09T09:19:50.404Z,15.10
2023-02-09T09:22:16.889Z,14.80
2023-02-09T09:24:43.357Z,13.27
2023-02-09T09:27:10.641Z,18.07
2023-02-09T09:29:37.433Z,14.80
2023-02-09T09:32:04.155Z,13.30
2023-02-09T09:34:31.998Z,14.50
2023-02-09T09:36:58.506Z,14.50
2023-02-09T09:39:25.831Z,13.80
2023-02-09T09:41:56.026Z,12.70
2023-02-09T09:44:29.859Z,13.33
2023-02-09T09:46:56.950Z,12.43
2023-02-09T09:49:26.014Z,14.70
2023-02-09T09:51:58.360Z,9.80
2023-02-09T09:54:28.291Z,17.10
2023-02-09T09:56:54.934Z,16.97
2023-02-09T09:59:25.147Z,16.37
2023-02-09T10:01:53.377Z,15.57
2023-02-09T10:04:20.084Z,15.37
2023-02-09T10:06:51.835Z,14.17
2023-02-09T10:09:32.023Z,13.13
2023-02-09T10:12:08.109Z,11.20
2023-02-09T10:14:34.630Z,12.73
2023-02-09T10:17:01.200Z,12.80
2023-02-09T10:19:27.789Z,13.30
2023-02-09T10:21:55.041Z,11.87
2023-02-09T10:24:25.719Z,11.70
2023-02-09T10:27:04.430Z,13.00
2023-02-09T10:29:31.357Z,13.27
2023-02-09T10:32:04.757Z,12.63
2023-02-09T10:34:40.021Z,12.07
2023-02-09T10:37:16.953Z,13.27
2023-02-09T10:39:46.362Z,13.40
2023-02-09T10:42:20.342Z,13.10
2023-02-09T10:44:49.428Z,17.77
2023-02-09T10:47:27.901Z,12.57
2023-02-09T10:49:56.271Z,15.40
2023-02-09T10:52:24.621Z,14.40
2023-02-09T10:54:54.167Z,17.43
2023-02-09T10:57:23.607Z,16.20
2023-02-09T10:59:55.104Z,15.73
2023-02-09T11:02:37.067Z,14.17
2023-02-09T11:05:23.871Z,14.87
2023-02-09T11:07:56.725Z,16.43
2023-02-09T11:10:26.599Z,13.57
2023-02-09T11:12:53.100Z,13.53
2023-02-09T11:15:26.540Z,26.70
2023-02-09T11:18:00.325Z,18.77
2023-02-09T11:20:31.214Z,17.77
2023-02-09T11:23:21.145Z,15.37
2023-02-09T11:25:56.001Z,15.60
2023-02-09T11:28:33.468Z,15.17
2023-02-09T11:31:13.700Z,13.53
2023-02-09T11:33:45.638Z,14.47
2023-02-09T11:36:24.659Z,11.60
2023-02-09T11:38:54.056Z,12.90
2023-02-09T11:41:29.116Z,15.97
2023-02-09T11:43:57.497Z,14.10
2023-02-09T11:46:25.205Z,17.23
2023-02-09T11:48:57.756Z,15.60
2023-02-09T11:51:25.703Z,14.57
2023-02-09T11:53:58.372Z,13.20
2023-02-09T11:56:28.185Z,14.67
2023-02-09T11:58:59.991Z,13.67
2023-02-09T12:01:36.696Z,13.10
2023-02-09T12:04:09.550Z,14.73
2023-02-09T12:06:40.905Z,13.93
2023-02-09T12:09:21.764Z,14.53
2023-02-09T12:12:02.570Z,14.37
2023-02-09T12:14:44.618Z,16.57
2023-02-09T12:17:17.500Z,14.33
2023-02-09T12:19:45.870Z,14.27
2023-02-09T12:22:41.063Z,13.63
2023-02-09T12:25:35.531Z,14.20
2023-02-09T12:28:17.202Z,14.53
2023-02-09T12:31:09.597Z,17.10
2023-02-09T12:33:37.353Z,15.10
2023-02-09T12:36:24.524Z,15.17
2023-02-09T12:39:05.475Z,15.87
2023-02-09T12:42:05.522Z,14.00
2023-02-09T12:44:54.518Z,14.40
2023-02-09T12:47:45.467Z,14.77
2023-02-09T12:50:35.076Z,13.50
2023-02-09T12:53:34.107Z,14.23
2023-02-09T12:56:03.619Z,13.40
2023-02-09T12:58:39.428Z,16.07
2023-02-09T13:01:08.448Z,15.13
2023-02-09T13:03:42.375Z,15.43
2023-02-09T13:06:22.970Z,15.97
2023-02-09T13:08:51.990Z,15.30
2023-02-09T13:11:40.313Z,16.27
2023-02-09T13:14:09.444Z,15.67
2023-02-09T13:17:21.567Z,14.50
2023-02-09T13:20:25.401Z,16.27
2023-02-09T13:23:02.944Z,15.53
2023-02-09T13:25:34.046Z,15.73
2023-02-09T13:28:09.614Z,14.97
2023-02-09T13:30:36.235Z,16.03
2023-02-09T13:33:16.031Z,14.77
2023-02-09T13:35:54.160Z,14.53
2023-02-09T13:38:20.728Z,15.93
2023-02-09T13:40:48.529Z,14.07
2023-02-09T13:43:20.777Z,15.80
2023-02-09T13:45:48.354Z,13.53
2023-02-09T13:48:23.189Z,15.27
2023-02-09T13:50:50.695Z,15.07
2023-02-09T13:53:18.478Z,14.87
2023-02-09T13:55:47.082Z,15.50
2023-02-09T13:58:18.685Z,13.97
2023-02-09T14:00:48.833Z,14.40
2023-02-09T14:03:18.732Z,14.93
2023-02-09T14:05:49.682Z,14.60
2023-02-09T14:08:17.934Z,15.47
2023-02-09T14:10:52.279Z,15.67
2023-02-09T14:13:27.404Z,14.90
2023-02-09T14:15:57.873Z,14.47
2023-02-09T14:18:33.098Z,14.87
2023-02-09T14:21:03.282Z,14.10
2023-02-09T14:23:29.976Z,13.10
2023-02-09T14:26:04.538Z,15.17
2023-02-09T14:28:31.154Z,14.67
2023-02-09T14:30:58.759Z,13.47
2023-02-09T14:33:25.446Z,13.30
2023-02-09T14:35:54.602Z,14.97
2023-02-09T14:38:36.364Z,13.17
2023-02-09T14:41:18.389Z,13.33
2023-02-09T14:43:44.966Z,13.37
2023-02-09T14:46:11.505Z,12.73
2023-02-09T14:48:38.051Z,11.73
2023-02-09T14:51:14.364Z,11.70
2023-02-09T14:53:43.779Z,12.00
2023-02-09T14:56:19.516Z,12.37
2023-02-09T14:58:46.038Z,11.37
2023-02-09T15:01:12.544Z,11.83
2023-02-09T15:03:39.052Z,11.93
2023-02-09T15:06:06.152Z,12.33
2023-02-09T15:08:36.450Z,12.47
2023-02-09T15:11:05.979Z,12.70
2023-02-09T15:13:32.529Z,12.00
2023-02-09T15:15:59.143Z,11.57
2023-02-09T15:18:26.767Z,11.17
2023-02-09T15:20:53.394Z,13.07
2023-02-09T15:23:20.122Z,13.67
2023-02-09T15:25:47.136Z,14.30
2023-02-09T15:28:21.614Z,12.20
2023-02-09T15:30:48.828Z,12.20
2023-02-09T15:33:15.645Z,13.07
2023-02-09T15:35:42.165Z,13.93
2023-02-09T15:38:10.079Z,13.63
2023-02-09T15:40:40.094Z,13.47
2023-02-09T15:43:11.888Z,13.67
2023-02-09T15:45:39.774Z,12.90
2023-02-09T15:48:07.534Z,14.33
2023-02-09T15:50:36.311Z,16.57
2023-02-09T15:53:09.936Z,15.17
2023-02-09T15:55:37.662Z,14.33
2023-02-09T15:58:10.467Z,15.77
2023-02-09T16:00:36.981Z,14.43
2023-02-09T16:03:13.984Z,15.57
2023-02-09T16:05:40.551Z,14.40
2023-02-09T16:08:11.675Z,15.43
2023-02-09T16:10:38.186Z,15.90
2023-02-09T16:13:06.247Z,15.30
2023-02-09T16:15:32.770Z,14.23
2023-02-09T16:17:59.263Z,13.53
2023-02-09T16:20:27.866Z,13.90
2023-02-09T16:22:56.808Z,13.93
2023-02-09T16:25:25.684Z,14.17
2023-02-09T16:27:53.551Z,14.93
2023-02-09T16:30:22.528Z,13.83
2023-02-09T16:32:49.561Z,14.33
2023-02-09T16:35:17.461Z,16.73
2023-02-09T16:37:46.791Z,13.57
2023-02-09T16:40:26.232Z,13.07
2023-02-09T16:42:53.279Z,13.40
2023-02-09T16:45:20.215Z,13.40
2023-02-09T16:47:50.288Z,16.37
2023-02-09T16:50:25.866Z,13.97
2023-02-09T16:52:55.379Z,19.40
2023-02-09T16:55:25.936Z,15.40
2023-02-09T16:57:53.752Z,17.23
2023-02-09T17:00:21.680Z,18.83
2023-02-09T17:02:51.819Z,18.70
2023-02-09T17:05:21.278Z,17.63
2023-02-09T17:07:54.947Z,15.80
2023-02-09T17:10:25.517Z,13.83
2023-02-09T17:12:53.769Z,14.73
2023-02-09T17:15:30.046Z,26.60
2023-02-09T17:18:02.256Z,23.03
2023-02-09T17:20:34.944Z,21.27
2023-02-09T17:23:01.551Z,21.30
2023-02-09T17:25:29.543Z,19.63
2023-02-09T17:27:56.164Z,19.97
2023-02-09T17:30:22.705Z,23.63
2023-02-09T17:32:58.282Z,27.43
2023-02-09T17:35:47.974Z,25.63
2023-02-09T17:38:20.259Z,23.40
2023-02-09T17:40:48.326Z,21.23
2023-02-09T17:43:14.925Z,20.20
2023-02-09T17:45:41.629Z,20.70
2023-02-09T17:48:09.208Z,19.83
2023-02-09T17:50:35.767Z,20.50
2023-02-09T17:53:02.299Z,22.13
2023-02-09T17:55:29.678Z,22.67
2023-02-09T17:57:59.487Z,20.53
2023-02-09T18:00:27.011Z,23.87
2023-02-09T18:02:56.621Z,21.77
2023-02-09T18:05:25.265Z,20.17
2023-02-09T18:07:52.682Z,20.37
2023-02-09T18:10:20.925Z,20.70
2023-02-09T18:12:48.151Z,19.20
2023-02-09T18:15:23.004Z,18.13
2023-02-09T18:17:50.646Z,17.13
2023-02-09T18:20:18.925Z,16.47
2023-02-09T18:22:45.504Z,15.37
2023-02-09T18:25:19.390Z,16.27
2023-02-09T18:27:45.950Z,17.33
2023-02-09T18:30:13.509Z,18.13
2023-02-09T18:32:41.420Z,16.77
2023-02-09T18:35:08.221Z,16.70
2023-02-09T18:37:34.746Z,16.50
2023-02-09T18:40:01.286Z,22.77
2023-02-09T18:42:27.833Z,24.73
2023-02-09T18:44:54.358Z,23.00
2023-02-09T18:47:20.895Z,23.70
2023-02-09T18:49:48.810Z,24.30
2023-02-09T18:52:15.417Z,23.47
2023-02-09T18:54:41.932Z,22.30
2023-02-09T18:57:08.436Z,24.77
2023-02-09T18:59:35.432Z,27.47
2023-02-09T19:02:02.160Z,30.10
2023-02-09T19:04:28.881Z,29.20
2023-02-09T19:06:56.884Z,26.70
2023-02-09T19:09:23.429Z,23.87
2023-02-09T19:11:49.987Z,24.43
2023-02-09T19:14:16.555Z,24.73
2023-02-09T19:16:43.071Z,26.17
2023-02-09T19:19:09.644Z,26.53
2023-02-09T19:21:36.393Z,22.37
2023-02-09T19:24:04.499Z,22.23
2023-02-09T19:26:31.070Z,23.40
2023-02-09T19:28:57.635Z,25.17
2023-02-09T19:31:24.345Z,25.13
2023-02-09T19:33:54.743Z,23.90
2023-02-09T19:36:21.294Z,28.27
2023-02-09T19:38:47.816Z,28.00
2023-02-09T19:41:15.731Z,21.40
2023-02-09T19:43:42.387Z,20.63
2023-02-09T19:46:09.354Z,22.23
2023-02-09T19:48:37.539Z,20.13
2023-02-09T19:51:04.197Z,19.07
2023-02-09T19:53:30.740Z,21.83
2023-02-09T19:55:57.258Z,24.10
2023-02-09T19:58:25.270Z,48.30
2023-02-09T20:00:52.120Z,30.13
2023-02-09T20:03:18.935Z,38.13
2023-02-09T20:05:46.075Z,134.17
2023-02-09T20:08:16.218Z,127.43
2023-02-09T20:10:42.787Z,77.10
2023-02-09T20:13:09.838Z,49.93
2023-02-09T20:15:39.909Z,48.60
2023-02-09T20:18:06.448Z,41.70
2023-02-09T20:20:32.975Z,33.03
2023-02-09T20:22:59.478Z,27.43
2023-02-09T20:25:26.004Z,27.07
2023-02-09T20:27:52.573Z,25.00
2023-02-09T20:30:19.194Z,26.00
2023-02-09T20:32:47.062Z,26.63
2023-02-09T20:35:13.645Z,23.47
2023-02-09T20:37:40.179Z,23.97
2023-02-09T20:40:07.195Z,23.70
2023-02-09T20:42:33.751Z,25.00
2023-02-09T20:45:00.336Z,28.17
2023-02-09T20:47:27.029Z,23.17
2023-02-09T20:49:57.563Z,21.03
2023-02-09T20:52:24.108Z,23.97
2023-02-09T20:54:50.624Z,25.17
2023-02-09T20:57:17.173Z,29.30
2023-02-09T20:59:43.696Z,32.13
2023-02-09T21:02:11.527Z,29.17
2023-02-09T21:04:38.244Z,28.83
2023-02-09T21:07:06.115Z,27.17
2023-02-09T21:09:32.676Z,23.37
2023-02-09T21:11:59.177Z,21.93
2023-02-09T21:14:41.341Z,21.87
2023-02-09T21:17:09.051Z,22.30
2023-02-09T21:19:35.636Z,20.07
2023-02-09T21:22:02.161Z,20.47
2023-02-09T21:24:30.010Z,20.33
2023-02-09T21:26:56.557Z,21.10
2023-02-09T21:29:23.098Z,22.27
2023-02-09T21:31:49.668Z,31.10
2023-02-09T21:34:16.726Z,42.30
2023-02-09T21:36:43.395Z,30.90
2023-02-09T21:39:10.006Z,28.93
2023-02-09T21:41:37.915Z,26.60
2023-02-09T21:44:05.434Z,25.40
2023-02-09T21:46:32.231Z,24.17
2023-02-09T21:48:58.793Z,24.80
2023-02-09T21:51:25.351Z,23.13
2023-02-09T21:53:52.086Z,25.00
2023-02-09T21:56:18.666Z,23.27
2023-02-09T21:58:46.641Z,28.00
2023-02-09T22:01:13.394Z,25.47
2023-02-09T22:03:41.093Z,25.63
2023-02-09T22:06:08.417Z,31.20
2023-02-09T22:08:35.048Z,29.33
2023-02-09T22:11:02.547Z,33.27
2023-02-09T22:13:29.528Z,29.67
2023-02-09T22:15:57.414Z,29.40
2023-02-09T22:18:24.600Z,28.93
2023-02-09T22:20:51.119Z,22.67
2023-02-09T22:23:18.469Z,23.80
2023-02-09T22:25:45.041Z,23.50
2023-02-09T22:28:11.680Z,22.97
2023-02-09T22:30:38.212Z,22.03
2023-02-09T22:33:06.133Z,26.47
2023-02-09T22:35:32.605Z,24.30
2023-02-09T22:37:59.119Z,25.10
2023-02-09T22:40:25.642Z,26.40
2023-02-09T22:42:52.136Z,34.73
2023-02-09T22:45:18.857Z,31.50
2023-02-09T22:47:45.343Z,25.27
2023-02-09T22:50:13.259Z,27.50
2023-02-09T22:52:39.770Z,35.30
2023-02-09T22:55:06.428Z,31.70
2023-02-09T22:57:32.908Z,28.43
2023-02-09T22:59:59.420Z,34.53
2023-02-09T23:02:25.967Z,31.07
2023-02-09T23:04:52.492Z,34.23
2023-02-09T23:07:20.344Z,27.53
2023-02-09T23:09:46.900Z,36.07
2023-02-09T23:12:13.415Z,32.00
2023-02-09T23:14:39.954Z,25.60
2023-02-09T23:17:06.479Z,22.40
2023-02-09T23:19:33.006Z,19.33
2023-02-09T23:21:59.505Z,20.83
2023-02-09T23:24:27.490Z,21.13
2023-02-09T23:26:54.444Z,18.30
2023-02-09T23:29:21.385Z,23.43
2023-02-09T23:31:48.103Z,20.87
2023-02-09T23:34:16.534Z,19.97
2023-02-09T23:36:43.058Z,19.80
2023-02-09T23:39:13.680Z,18.93
2023-02-09T23:41:42.034Z,21.03
2023-02-09T23:44:08.540Z,21.03
2023-02-09T23:46:35.279Z,20.40
2023-02-09T23:49:01.948Z,21.00
2023-02-09T23:51:31.204Z,21.47
2023-02-09T23:53:59.215Z,22.40
2023-02-09T23:56:27.282Z,22.53
2023-02-09T23:58:55.785Z,21.90
